sensor_id;sensor_type;location;lat;lon;timestamp;pressure;altitude;pressure_sealevel;temperature;humidity
18918;BME280;9591;52.742;13.650;2023-01-30T00:00:33;100794.69;;;1.96;100.00
18918;BME280;9591;52.742;13.650;2023-01-30T00:03:20;100790.34;;;1.97;100.00
18918;BME280;9591;52.742;13.650;2023-01-30T00:06:07;100776.41;;;2.00;100.00
18918;BME280;9591;52.742;13.650;2023-01-30T00:08:54;100780.75;;;1.94;100.00
18918;BME280;9591;52.742;13.650;2023-01-30T00:11:42;100780.75;;;1.94;100.00
18918;BME280;9591;52.742;13.650;2023-01-30T00:14:29;100778.13;;;1.91;100.00
18918;BME280;9591;52.742;13.650;2023-01-30T00:17:16;100772.94;;;1.99;100.00
18918;BME280;9591;52.742;13.650;2023-01-30T00:20:03;100765.94;;;1.95;100.00
18918;BME280;9591;52.742;13.650;2023-01-30T00:22:50;100761.59;;;1.94;100.00
18918;BME280;9591;52.742;13.650;2023-01-30T00:25:44;100737.19;;;1.87;100.00
18918;BME280;9591;52.742;13.650;2023-01-30T00:28:33;100737.22;;;1.98;100.00
18918;BME280;9591;52.742;13.650;2023-01-30T00:31:21;100711.94;;;1.91;100.00
18918;BME280;9591;52.742;13.650;2023-01-30T00:34:08;100698.88;;;1.92;100.00
18918;BME280;9591;52.742;13.650;2023-01-30T00:36:55;100690.19;;;1.96;100.00
18918;BME280;9591;52.742;13.650;2023-01-30T00:39:52;100672.75;;;1.89;100.00
18918;BME280;9591;52.742;13.650;2023-01-30T00:42:39;100644.03;;;1.94;100.00
18918;BME280;9591;52.742;13.650;2023-01-30T00:45:45;100627.50;;;1.86;100.00
18918;BME280;9591;52.742;13.650;2023-01-30T00:48:50;100646.63;;;1.82;100.00
18918;BME280;9591;52.742;13.650;2023-01-30T00:51:37;100639.69;;;1.85;100.00
18918;BME280;9591;52.742;13.650;2023-01-30T00:54:24;100629.22;;;1.88;100.00
18918;BME280;9591;52.742;13.650;2023-01-30T00:57:10;100629.22;;;1.87;100.00
18918;BME280;9591;52.742;13.650;2023-01-30T00:59:57;100623.13;;;1.83;100.00
18918;BME280;9591;52.742;13.650;2023-01-30T01:02:46;100614.41;;;1.80;100.00
18918;BME280;9591;52.742;13.650;2023-01-30T01:05:32;100610.94;;;1.87;100.00
18918;BME280;9591;52.742;13.650;2023-01-30T01:08:19;100597.00;;;1.83;100.00
18918;BME280;9591;52.742;13.650;2023-01-30T01:11:06;100583.09;;;1.84;100.00
18918;BME280;9591;52.742;13.650;2023-01-30T01:13:54;100575.25;;;1.83;100.00
18918;BME280;9591;52.742;13.650;2023-01-30T01:16:41;100543.03;;;1.85;100.00
18918;BME280;9591;52.742;13.650;2023-01-30T01:19:29;100533.47;;;1.81;100.00
18918;BME280;9591;52.742;13.650;2023-01-30T01:22:18;100532.59;;;1.81;100.00
18918;BME280;9591;52.742;13.650;2023-01-30T01:25:06;100537.81;;;1.84;100.00
18918;BME280;9591;52.742;13.650;2023-01-30T01:27:53;100536.94;;;1.83;100.00
18918;BME280;9591;52.742;13.650;2023-01-30T01:30:40;100529.13;;;1.82;100.00
18918;BME280;9591;52.742;13.650;2023-01-30T01:33:28;100529.97;;;1.78;100.00
18918;BME280;9591;52.742;13.650;2023-01-30T01:36:16;100523.88;;;1.85;100.00
18918;BME280;9591;52.742;13.650;2023-01-30T01:39:23;100523.00;;;1.80;100.00
18918;BME280;9591;52.742;13.650;2023-01-30T01:42:33;100546.53;;;1.78;100.00
18918;BME280;9591;52.742;13.650;2023-01-30T01:45:22;100535.19;;;1.81;100.00
18918;BME280;9591;52.742;13.650;2023-01-30T01:48:13;100516.91;;;1.78;100.00
18918;BME280;9591;52.742;13.650;2023-01-30T01:51:02;100526.50;;;1.79;100.00
18918;BME280;9591;52.742;13.650;2023-01-30T01:53:55;100517.78;;;1.83;100.00
18918;BME280;9591;52.742;13.650;2023-01-30T01:56:45;100501.25;;;1.87;100.00
18918;BME280;9591;52.742;13.650;2023-01-30T01:59:37;100496.03;;;1.76;100.00
18918;BME280;9591;52.742;13.650;2023-01-30T02:02:27;100503.91;;;1.72;100.00
18918;BME280;9591;52.742;13.650;2023-01-30T02:05:15;100478.66;;;1.58;100.00
18918;BME280;9591;52.742;13.650;2023-01-30T02:08:04;100470.81;;;1.52;100.00
18918;BME280;9591;52.742;13.650;2023-01-30T02:10:58;100446.47;;;1.43;100.00
18918;BME280;9591;52.742;13.650;2023-01-30T02:13:46;100437.75;;;1.42;100.00
18918;BME280;9591;52.742;13.650;2023-01-30T02:16:35;100423.84;;;1.42;100.00
18918;BME280;9591;52.742;13.650;2023-01-30T02:19:27;100418.63;;;1.33;100.00
18918;BME280;9591;52.742;13.650;2023-01-30T02:22:33;100415.13;;;1.27;100.00
18918;BME280;9591;52.742;13.650;2023-01-30T02:25:37;100396.88;;;1.27;100.00
18918;BME280;9591;52.742;13.650;2023-01-30T02:28:51;100384.69;;;1.25;100.00
18918;BME280;9591;52.742;13.650;2023-01-30T02:31:48;100396.88;;;1.27;100.00
18918;BME280;9591;52.742;13.650;2023-01-30T02:34:43;100401.22;;;1.28;100.00
18918;BME280;9591;52.742;13.650;2023-01-30T02:37:42;100385.56;;;1.27;100.00
18918;BME280;9591;52.742;13.650;2023-01-30T02:40:40;100378.59;;;1.26;100.00
18918;BME280;9591;52.742;13.650;2023-01-30T02:43:38;100379.47;;;1.22;100.00
18918;BME280;9591;52.742;13.650;2023-01-30T02:46:31;100373.38;;;1.21;100.00
18918;BME280;9591;52.742;13.650;2023-01-30T02:49:24;100367.28;;;1.24;100.00
18918;BME280;9591;52.742;13.650;2023-01-30T02:52:14;100344.69;;;1.17;100.00
18918;BME280;9591;52.742;13.650;2023-01-30T02:55:08;100336.00;;;1.27;100.00
18918;BME280;9591;52.742;13.650;2023-01-30T02:57:56;100342.94;;;1.25;100.00
18918;BME280;9591;52.742;13.650;2023-01-30T03:00:54;100344.69;;;1.30;100.00
18918;BME280;9591;52.742;13.650;2023-01-30T03:07:24;100312.50;;;1.21;100.00
18918;BME280;9591;52.742;13.650;2023-01-30T03:10:20;100331.63;;;1.34;100.00
18918;BME280;9591;52.742;13.650;2023-01-30T03:13:31;100323.81;;;1.34;100.00
18918;BME280;9591;52.742;13.650;2023-01-30T03:16:24;100321.19;;;1.38;100.00
18918;BME280;9591;52.742;13.650;2023-01-30T03:19:12;100317.72;;;1.41;100.00
18918;BME280;9591;52.742;13.650;2023-01-30T03:21:59;100323.81;;;1.32;100.00
18918;BME280;9591;52.742;13.650;2023-01-30T03:24:48;100237.78;;;0.88;100.00
18918;BME280;9591;52.742;13.650;2023-01-30T03:27:37;100247.31;;;1.09;100.00
18918;BME280;9591;52.742;13.650;2023-01-30T03:30:25;100299.44;;;1.41;100.00
18918;BME280;9591;52.742;13.650;2023-01-30T03:33:21;100279.44;;;1.40;100.00
18918;BME280;9591;52.742;13.650;2023-01-30T03:36:08;100285.53;;;1.43;100.00
18918;BME280;9591;52.742;13.650;2023-01-30T03:38:55;100263.75;;;1.49;100.00
18918;BME280;9591;52.742;13.650;2023-01-30T03:41:43;100262.88;;;1.48;100.00
18918;BME280;9591;52.742;13.650;2023-01-30T03:44:34;100269.84;;;1.51;100.00
18918;BME280;9591;52.742;13.650;2023-01-30T03:47:20;100257.66;;;1.54;100.00
18918;BME280;9591;52.742;13.650;2023-01-30T03:50:09;100262.88;;;1.57;100.00
18918;BME280;9591;52.742;13.650;2023-01-30T03:52:56;100255.03;;;1.57;100.00
18918;BME280;9591;52.742;13.650;2023-01-30T03:55:43;100243.69;;;1.64;100.00
18918;BME280;9591;52.742;13.650;2023-01-30T03:58:32;100237.63;;;1.61;100.00
18918;BME280;9591;52.742;13.650;2023-01-30T04:01:33;100221.06;;;1.67;100.00
18918;BME280;9591;52.742;13.650;2023-01-30T04:04:21;100223.69;;;1.65;100.00
18918;BME280;9591;52.742;13.650;2023-01-30T04:07:08;100217.59;;;1.64;100.00
18918;BME280;9591;52.742;13.650;2023-01-30T04:09:57;100222.78;;;1.69;100.00
18918;BME280;9591;52.742;13.650;2023-01-30T04:12:44;100214.03;;;1.78;100.00
18918;BME280;9591;52.742;13.650;2023-01-30T04:15:33;100203.56;;;1.84;100.00
18918;BME280;9591;52.742;13.650;2023-01-30T04:18:38;100198.31;;;1.85;100.00
18918;BME280;9591;52.742;13.650;2023-01-30T04:21:35;100063.88;;;1.05;100.00
18918;BME280;9591;52.742;13.650;2023-01-30T04:24:22;100187.88;;;1.87;100.00
18918;BME280;9591;52.742;13.650;2023-01-30T04:27:08;100186.09;;;1.90;100.00
18918;BME280;9591;52.742;13.650;2023-01-30T04:30:06;100191.28;;;1.96;100.00
18918;BME280;9591;52.742;13.650;2023-01-30T04:32:54;100171.25;;;2.02;100.00
18918;BME280;9591;52.742;13.650;2023-01-30T04:35:50;100161.63;;;2.07;100.00
18918;BME280;9591;52.742;13.650;2023-01-30T04:38:37;100164.25;;;2.07;100.00
18918;BME280;9591;52.742;13.650;2023-01-30T04:41:25;100163.34;;;2.11;100.00
18918;BME280;9591;52.742;13.650;2023-01-30T04:44:16;100160.75;;;2.06;100.00
18918;BME280;9591;52.742;13.650;2023-01-30T04:47:07;100157.28;;;2.07;100.00
18918;BME280;9591;52.742;13.650;2023-01-30T04:49:55;100157.28;;;2.06;100.00
18918;BME280;9591;52.742;13.650;2023-01-30T04:52:42;100143.41;;;1.97;100.00
18918;BME280;9591;52.742;13.650;2023-01-30T04:55:31;100144.28;;;1.96;100.00
18918;BME280;9591;52.742;13.650;2023-01-30T04:58:18;100128.63;;;1.95;100.00
18918;BME280;9591;52.742;13.650;2023-01-30T05:01:12;100140.84;;;1.90;100.00
18918;BME280;9591;52.742;13.650;2023-01-30T05:04:01;100132.16;;;1.85;100.00
18918;BME280;9591;52.742;13.650;2023-01-30T05:06:50;100130.44;;;1.82;100.00
18918;BME280;9591;52.742;13.650;2023-01-30T05:09:36;100119.16;;;1.79;100.00
18918;BME280;9591;52.742;13.650;2023-01-30T05:12:23;100113.09;;;1.74;100.00
18918;BME280;9591;52.742;13.650;2023-01-30T05:15:10;100104.38;;;1.76;100.00
18918;BME280;9591;52.742;13.650;2023-01-30T05:17:58;100105.31;;;1.72;100.00
18918;BME280;9591;52.742;13.650;2023-01-30T05:20:45;100098.38;;;1.63;100.00
18918;BME280;9591;52.742;13.650;2023-01-30T05:23:33;100094.88;;;1.68;100.00
18918;BME280;9591;52.742;13.650;2023-01-30T05:26:20;100102.69;;;1.72;100.00
18918;BME280;9591;52.742;13.650;2023-01-30T05:29:09;100094.81;;;1.75;100.00
18918;BME280;9591;52.742;13.650;2023-01-30T05:31:55;100087.81;;;1.80;100.00
18918;BME280;9591;52.742;13.650;2023-01-30T05:34:42;100067.94;;;1.64;100.00
18918;BME280;9591;52.742;13.650;2023-01-30T05:37:29;100081.75;;;1.74;100.00
18918;BME280;9591;52.742;13.650;2023-01-30T05:40:17;100082.63;;;1.74;100.00
18918;BME280;9591;52.742;13.650;2023-01-30T05:43:05;100028.91;;;1.43;100.00
18918;BME280;9591;52.742;13.650;2023-01-30T05:45:51;100073.13;;;1.69;100.00
18918;BME280;9591;52.742;13.650;2023-01-30T05:48:38;100054.88;;;1.64;100.00
18918;BME280;9591;52.742;13.650;2023-01-30T05:51:26;100041.72;;;1.76;100.00
18918;BME280;9591;52.742;13.650;2023-01-30T05:54:13;100046.13;;;1.71;100.00
18918;BME280;9591;52.742;13.650;2023-01-30T05:57:01;100048.66;;;1.77;100.00
18918;BME280;9591;52.742;13.650;2023-01-30T05:59:47;100048.66;;;1.79;100.00
18918;BME280;9591;52.742;13.650;2023-01-30T06:02:35;100041.78;;;1.70;100.00
18918;BME280;9591;52.742;13.650;2023-01-30T06:05:22;100051.22;;;1.86;100.00
18918;BME280;9591;52.742;13.650;2023-01-30T06:08:09;100051.19;;;1.88;100.00
18918;BME280;9591;52.742;13.650;2023-01-30T06:10:59;100040.78;;;1.83;100.00
18918;BME280;9591;52.742;13.650;2023-01-30T06:13:47;100049.41;;;1.94;100.00
18918;BME280;9591;52.742;13.650;2023-01-30T06:16:34;100052.91;;;1.92;100.00
18918;BME280;9591;52.742;13.650;2023-01-30T06:19:21;100054.59;;;1.97;100.00
18918;BME280;9591;52.742;13.650;2023-01-30T06:22:08;100055.47;;;1.96;100.00
18918;BME280;9591;52.742;13.650;2023-01-30T06:24:54;100039.72;;;2.07;100.00
18918;BME280;9591;52.742;13.650;2023-01-30T06:27:41;100045.78;;;2.11;100.00
18918;BME280;9591;52.742;13.650;2023-01-30T06:30:30;100037.94;;;2.12;100.00
18918;BME280;9591;52.742;13.650;2023-01-30T06:33:16;100043.16;;;2.14;100.00
18918;BME280;9591;52.742;13.650;2023-01-30T06:36:04;100025.63;;;2.23;100.00
18918;BME280;9591;52.742;13.650;2023-01-30T06:38:51;100033.47;;;2.25;100.00
18918;BME280;9591;52.742;13.650;2023-01-30T06:41:37;100034.31;;;2.28;100.00
18918;BME280;9591;52.742;13.650;2023-01-30T06:44:24;100046.50;;;2.28;100.00
18918;BME280;9591;52.742;13.650;2023-01-30T06:47:12;100028.19;;;2.29;100.00
18918;BME280;9591;52.742;13.650;2023-01-30T06:49:59;100017.59;;;2.43;100.00
18918;BME280;9591;52.742;13.650;2023-01-30T06:52:47;100009.84;;;2.37;100.00
18918;BME280;9591;52.742;13.650;2023-01-30T06:55:35;100023.66;;;2.47;100.00
18918;BME280;9591;52.742;13.650;2023-01-30T06:58:24;100031.50;;;2.48;100.00
18918;BME280;9591;52.742;13.650;2023-01-30T07:01:11;100018.41;;;2.50;100.00
18918;BME280;9591;52.742;13.650;2023-01-30T07:04:00;100005.28;;;2.54;100.00
18918;BME280;9591;52.742;13.650;2023-01-30T07:06:47;100010.50;;;2.56;100.00
18918;BME280;9591;52.742;13.650;2023-01-30T07:09:34;100003.41;;;2.64;100.00
18918;BME280;9591;52.742;13.650;2023-01-30T07:12:21;100006.88;;;2.64;100.00
18918;BME280;9591;52.742;13.650;2023-01-30T07:15:09;100002.47;;;2.70;100.00
18918;BME280;9591;52.742;13.650;2023-01-30T07:17:56;99997.13;;;2.79;100.00
18918;BME280;9591;52.742;13.650;2023-01-30T07:20:46;99986.84;;;2.63;100.00
18918;BME280;9591;52.742;13.650;2023-01-30T07:23:33;100007.53;;;2.85;100.00
18918;BME280;9591;52.742;13.650;2023-01-30T07:26:20;99995.31;;;2.85;100.00
18918;BME280;9591;52.742;13.650;2023-01-30T07:29:08;99990.75;;;3.01;100.00
18918;BME280;9591;52.742;13.650;2023-01-30T07:31:55;99995.00;;;3.10;100.00
18918;BME280;9591;52.742;13.650;2023-01-30T07:34:41;100005.47;;;3.08;100.00
18918;BME280;9591;52.742;13.650;2023-01-30T07:37:30;99998.53;;;3.07;100.00
18918;BME280;9591;52.742;13.650;2023-01-30T07:40:18;100003.63;;;3.16;100.00
18918;BME280;9591;52.742;13.650;2023-01-30T07:43:07;99963.69;;;3.04;100.00
18918;BME280;9591;52.742;13.650;2023-01-30T07:45:54;100002.56;;;3.31;100.00
18918;BME280;9591;52.742;13.650;2023-01-30T07:48:42;100001.50;;;3.43;100.00
18918;BME280;9591;52.742;13.650;2023-01-30T07:51:30;99999.66;;;3.48;100.00
18918;BME280;9591;52.742;13.650;2023-01-30T07:54:19;99999.59;;;3.52;100.00
18918;BME280;9591;52.742;13.650;2023-01-30T07:57:06;100005.66;;;3.56;100.00
18918;BME280;9591;52.742;13.650;2023-01-30T07:59:53;100008.13;;;3.65;100.00
18918;BME280;9591;52.742;13.650;2023-01-30T08:02:39;100000.97;;;3.76;100.00
18918;BME280;9591;52.742;13.650;2023-01-30T08:05:26;100001.78;;;3.80;100.00
18918;BME280;9591;52.742;13.650;2023-01-30T08:08:13;99996.41;;;3.87;100.00
18918;BME280;9591;52.742;13.650;2023-01-30T08:11:01;100002.44;;;3.94;100.00
18918;BME280;9591;52.742;13.650;2023-01-30T08:13:48;99999.78;;;3.95;100.00
18918;BME280;9591;52.742;13.650;2023-01-30T08:16:34;99998.06;;;3.93;100.00
18918;BME280;9591;52.742;13.650;2023-01-30T08:19:23;99995.34;;;3.99;100.00
18918;BME280;9591;52.742;13.650;2023-01-30T08:22:10;99983.09;;;4.01;100.00
18918;BME280;9591;52.742;13.650;2023-01-30T08:24:56;99991.84;;;4.00;100.00
18918;BME280;9591;52.742;13.650;2023-01-30T08:27:45;99999.63;;;4.05;100.00
18918;BME280;9591;52.742;13.650;2023-01-30T08:30:32;100000.53;;;4.02;100.00
18918;BME280;9591;52.742;13.650;2023-01-30T08:33:18;100009.94;;;4.14;100.00
18918;BME280;9591;52.742;13.650;2023-01-30T08:36:06;99982.72;;;4.22;100.00
18918;BME280;9591;52.742;13.650;2023-01-30T08:38:53;100000.00;;;4.33;100.00
18918;BME280;9591;52.742;13.650;2023-01-30T08:41:39;99999.25;;;4.26;100.00
18918;BME280;9591;52.742;13.650;2023-01-30T08:44:28;99999.19;;;4.29;100.00
18918;BME280;9591;52.742;13.650;2023-01-30T08:47:15;100006.06;;;4.35;100.00
18918;BME280;9591;52.742;13.650;2023-01-30T08:50:03;99998.47;;;4.21;100.00
18918;BME280;9591;52.742;13.650;2023-01-30T08:52:50;100003.69;;;4.22;100.00
18918;BME280;9591;52.742;13.650;2023-01-30T08:55:37;99998.19;;;4.35;100.00
18918;BME280;9591;52.742;13.650;2023-01-30T08:58:25;99993.75;;;4.38;100.00
18918;BME280;9591;52.742;13.650;2023-01-30T09:01:13;100002.44;;;4.40;100.00
18918;BME280;9591;52.742;13.650;2023-01-30T09:03:59;100002.38;;;4.45;100.00
18918;BME280;9591;52.742;13.650;2023-01-30T09:06:46;99992.78;;;4.44;100.00
18918;BME280;9591;52.742;13.650;2023-01-30T09:09:33;99994.25;;;4.58;100.00
18918;BME280;9591;52.742;13.650;2023-01-30T09:12:20;100003.66;;;4.69;100.00
18918;BME280;9591;52.742;13.650;2023-01-30T09:15:08;99996.63;;;4.71;100.00
18918;BME280;9591;52.742;13.650;2023-01-30T09:17:57;100004.47;;;4.72;100.00
18918;BME280;9591;52.742;13.650;2023-01-30T09:20:43;100001.81;;;4.74;100.00
18918;BME280;9591;52.742;13.650;2023-01-30T09:23:30;99993.22;;;4.66;100.00
18918;BME280;9591;52.742;13.650;2023-01-30T09:26:17;99996.56;;;4.74;100.00
18918;BME280;9591;52.742;13.650;2023-01-30T09:29:04;100001.13;;;4.64;100.00
18918;BME280;9591;52.742;13.650;2023-01-30T09:31:51;100001.00;;;4.70;100.00
18918;BME280;9591;52.742;13.650;2023-01-30T09:34:39;99996.50;;;4.77;100.00
18918;BME280;9591;52.742;13.650;2023-01-30T09:37:26;99993.66;;;4.87;100.00
18918;BME280;9591;52.742;13.650;2023-01-30T09:40:13;99994.53;;;4.88;100.00
18918;BME280;9591;52.742;13.650;2023-01-30T09:43:18;99991.84;;;4.91;100.00
18918;BME280;9591;52.742;13.650;2023-01-30T09:46:18;99996.06;;;4.98;100.00
18918;BME280;9591;52.742;13.650;2023-01-30T09:49:20;99996.06;;;4.98;100.00
18918;BME280;9591;52.742;13.650;2023-01-30T09:52:18;99990.97;;;4.90;100.00
18918;BME280;9591;52.742;13.650;2023-01-30T09:55:16;99990.75;;;5.01;100.00
18918;BME280;9591;52.742;13.650;2023-01-30T09:58:04;99990.63;;;5.07;100.00
18918;BME280;9591;52.742;13.650;2023-01-30T10:00:53;99994.78;;;5.17;100.00
18918;BME280;9591;52.742;13.650;2023-01-30T10:03:51;99994.53;;;5.26;100.00
18918;BME280;9591;52.742;13.650;2023-01-30T10:06:50;99990.00;;;5.35;100.00
18918;BME280;9591;52.742;13.650;2023-01-30T10:09:48;99982.75;;;5.44;100.00
18918;BME280;9591;52.742;13.650;2023-01-30T10:12:45;99982.81;;;5.43;100.00
18918;BME280;9591;52.742;13.650;2023-01-30T10:15:45;99983.94;;;5.31;100.00
18918;BME280;9591;52.742;13.650;2023-01-30T10:18:54;99981.38;;;5.28;100.00
18918;BME280;9591;52.742;13.650;2023-01-30T10:21:45;99972.66;;;5.27;100.00
18918;BME280;9591;52.742;13.650;2023-01-30T10:24:43;99974.44;;;5.25;100.00
18918;BME280;9591;52.742;13.650;2023-01-30T10:27:35;99976.84;;;5.35;100.00
18918;BME280;9591;52.742;13.650;2023-01-30T10:30:24;99969.84;;;5.35;100.00
18918;BME280;9591;52.742;13.650;2023-01-30T10:33:16;99975.75;;;5.45;100.00
18918;BME280;9591;52.742;13.650;2023-01-30T10:36:09;99970.06;;;5.63;100.00
18918;BME280;9591;52.742;13.650;2023-01-30T10:38:59;99971.66;;;5.70;100.00
18918;BME280;9591;52.742;13.650;2023-01-30T10:41:57;99984.75;;;5.72;100.00
18918;BME280;9591;52.742;13.650;2023-01-30T10:44:46;99964.56;;;5.74;100.00
18918;BME280;9591;52.742;13.650;2023-01-30T10:47:42;99977.81;;;5.69;100.00
18918;BME280;9591;52.742;13.650;2023-01-30T10:50:42;99968.22;;;5.67;100.00
18918;BME280;9591;52.742;13.650;2023-01-30T10:53:34;99965.16;;;5.85;100.00
18918;BME280;9591;52.742;13.650;2023-01-30T10:56:32;99959.94;;;5.83;100.00
18918;BME280;9591;52.742;13.650;2023-01-30T10:59:29;99954.38;;;5.97;100.00
18918;BME280;9591;52.742;13.650;2023-01-30T11:02:23;99949.72;;;6.07;100.00
18918;BME280;9591;52.742;13.650;2023-01-30T11:05:13;99953.28;;;6.06;100.00
18918;BME280;9591;52.742;13.650;2023-01-30T11:08:01;99935.84;;;6.02;100.00
18918;BME280;9591;52.742;13.650;2023-01-30T11:10:48;99926.78;;;6.12;100.00
18918;BME280;9591;52.742;13.650;2023-01-30T11:13:35;99927.03;;;6.04;100.00
18918;BME280;9591;52.742;13.650;2023-01-30T11:16:23;99920.94;;;6.02;100.00
18918;BME280;9591;52.742;13.650;2023-01-30T11:19:10;99910.00;;;5.83;100.00
18918;BME280;9591;52.742;13.650;2023-01-30T11:22:13;99872.19;;;5.55;100.00
18918;BME280;9591;52.742;13.650;2023-01-30T11:25:03;99897.84;;;5.79;100.00
18918;BME280;9591;52.742;13.650;2023-01-30T11:27:52;99901.75;;;5.63;100.00
18918;BME280;9591;52.742;13.650;2023-01-30T11:30:40;99891.63;;;5.48;100.00
18918;BME280;9591;52.742;13.650;2023-01-30T11:33:33;99885.91;;;5.32;100.00
18918;BME280;9591;52.742;13.650;2023-01-30T11:36:26;99874.75;;;5.22;100.00
18918;BME280;9591;52.742;13.650;2023-01-30T11:39:22;99866.25;;;5.13;100.00
18918;BME280;9591;52.742;13.650;2023-01-30T11:42:09;99889.03;;;5.12;100.00
18918;BME280;9591;52.742;13.650;2023-01-30T11:44:58;99887.22;;;5.14;100.00
18918;BME280;9591;52.742;13.650;2023-01-30T11:48:05;99903.91;;;5.12;100.00
18918;BME280;9591;52.742;13.650;2023-01-30T11:51:19;99911.19;;;4.99;100.00
18918;BME280;9591;52.742;13.650;2023-01-30T11:54:11;99914.75;;;4.97;100.00
18918;BME280;9591;52.742;13.650;2023-01-30T11:57:02;99901.78;;;4.89;100.00
18918;BME280;9591;52.742;13.650;2023-01-30T11:59:54;99889.56;;;4.88;100.00
18918;BME280;9591;52.742;13.650;2023-01-30T12:02:44;99903.81;;;4.76;100.00
18918;BME280;9591;52.742;13.650;2023-01-30T12:05:33;99885.78;;;4.61;100.00
18918;BME280;9591;52.742;13.650;2023-01-30T12:08:32;99886.00;;;4.50;100.00
18918;BME280;9591;52.742;13.650;2023-01-30T12:11:40;99886.06;;;4.47;100.00
18918;BME280;9591;52.742;13.650;2023-01-30T12:14:37;99869.50;;;4.45;100.00
18918;BME280;9591;52.742;13.650;2023-01-30T12:17:32;99853.69;;;4.50;100.00
18918;BME280;9591;52.742;13.650;2023-01-30T12:20:26;99842.97;;;4.60;100.00
18918;BME280;9591;52.742;13.650;2023-01-30T12:23:18;99847.97;;;4.71;100.00
18918;BME280;9591;52.742;13.650;2023-01-30T12:26:15;99851.25;;;4.81;100.00
18918;BME280;9591;52.742;13.650;2023-01-30T12:29:12;99853.00;;;4.80;100.00
18918;BME280;9591;52.742;13.650;2023-01-30T12:32:05;99846.69;;;4.89;100.00
18918;BME280;9591;52.742;13.650;2023-01-30T12:34:54;99842.00;;;5.03;100.00
18918;BME280;9591;52.742;13.650;2023-01-30T12:37:51;99843.81;;;5.00;100.00
18918;BME280;9591;52.742;13.650;2023-01-30T12:40:45;99842.09;;;4.99;100.00
18918;BME280;9591;52.742;13.650;2023-01-30T12:43:48;99846.63;;;4.92;100.00
18918;BME280;9591;52.742;13.650;2023-01-30T12:46:51;99839.75;;;4.86;100.00
18918;BME280;9591;52.742;13.650;2023-01-30T12:49:54;99821.94;;;5.01;100.00
18918;BME280;9591;52.742;13.650;2023-01-30T12:52:59;99822.72;;;5.04;100.00
18918;BME280;9591;52.742;13.650;2023-01-30T12:55:58;99825.25;;;5.09;100.00
18918;BME280;9591;52.742;13.650;2023-01-30T12:58:56;99820.69;;;5.15;100.00
18918;BME280;9591;52.742;13.650;2023-01-30T13:01:56;99811.78;;;5.21;100.00
18918;BME280;9591;52.742;13.650;2023-01-30T13:04:52;99810.84;;;5.23;100.00
18918;BME280;9591;52.742;13.650;2023-01-30T13:08:05;99796.00;;;5.22;100.00
18918;BME280;9591;52.742;13.650;2023-01-30T13:11:01;99805.84;;;5.14;100.00
18918;BME280;9591;52.742;13.650;2023-01-30T13:13:55;99779.06;;;5.34;100.00
18918;BME280;9591;52.742;13.650;2023-01-30T13:16:59;99789.22;;;5.48;100.00
18918;BME280;9591;52.742;13.650;2023-01-30T13:19:56;99797.16;;;5.45;100.00
18918;BME280;9591;52.742;13.650;2023-01-30T13:22:49;99790.91;;;5.50;100.00
18918;BME280;9591;52.742;13.650;2023-01-30T13:25:42;99781.25;;;5.51;100.00
18918;BME280;9591;52.742;13.650;2023-01-30T13:28:35;99779.59;;;5.47;100.00
18918;BME280;9591;52.742;13.650;2023-01-30T13:31:28;99764.38;;;5.59;100.00
18918;BME280;9591;52.742;13.650;2023-01-30T13:34:23;99769.53;;;5.64;100.00
18918;BME280;9591;52.742;13.650;2023-01-30T13:37:12;99770.34;;;5.66;100.00
18918;BME280;9591;52.742;13.650;2023-01-30T13:40:03;99762.63;;;5.60;100.00
18918;BME280;9591;52.742;13.650;2023-01-30T13:42:55;99752.94;;;5.62;100.00
18918;BME280;9591;52.742;13.650;2023-01-30T13:45:44;99763.28;;;5.68;100.00
18918;BME280;9591;52.742;13.650;2023-01-30T13:48:41;99766.22;;;5.56;100.00
18918;BME280;9591;52.742;13.650;2023-01-30T13:51:38;99772.31;;;5.24;100.00
18918;BME280;9591;52.742;13.650;2023-01-30T13:54:44;99768.25;;;5.14;100.00
18918;BME280;9591;52.742;13.650;2023-01-30T13:57:43;99776.91;;;5.17;100.00
18918;BME280;9591;52.742;13.650;2023-01-30T14:00:33;99778.09;;;5.04;100.00
18918;BME280;9591;52.742;13.650;2023-01-30T14:03:23;99803.59;;;4.99;100.00
18918;BME280;9591;52.742;13.650;2023-01-30T14:06:27;99761.06;;;4.48;100.00
18918;BME280;9591;52.742;13.650;2023-01-30T14:09:19;99799.41;;;4.53;100.00
18918;BME280;9591;52.742;13.650;2023-01-30T14:12:16;99818.56;;;4.57;100.00
18918;BME280;9591;52.742;13.650;2023-01-30T14:15:20;99817.91;;;4.47;100.00
18918;BME280;9591;52.742;13.650;2023-01-30T14:18:23;99844.97;;;4.48;100.00
18918;BME280;9591;52.742;13.650;2023-01-30T14:21:23;99845.00;;;4.46;100.00
18918;BME280;9591;52.742;13.650;2023-01-30T14:24:21;99861.53;;;4.50;100.00
18918;BME280;9591;52.742;13.650;2023-01-30T14:27:23;99866.00;;;4.46;100.00
18918;BME280;9591;52.742;13.650;2023-01-30T14:30:33;99886.88;;;4.51;100.00
18918;BME280;9591;52.742;13.650;2023-01-30T14:33:34;99889.63;;;4.45;100.00
18918;BME280;9591;52.742;13.650;2023-01-30T14:36:36;99909.66;;;4.47;100.00
18918;BME280;9591;52.742;13.650;2023-01-30T14:39:39;99851.00;;;4.11;100.00
18918;BME280;9591;52.742;13.650;2023-01-30T14:42:27;99894.03;;;4.43;100.00
18918;BME280;9591;52.742;13.650;2023-01-30T14:45:15;99915.03;;;4.41;100.00
18918;BME280;9591;52.742;13.650;2023-01-30T14:48:30;99919.38;;;4.42;100.00
18918;BME280;9591;52.742;13.650;2023-01-30T14:51:21;99927.38;;;4.36;100.00
18918;BME280;9591;52.742;13.650;2023-01-30T14:54:22;99928.25;;;4.37;100.00
18918;BME280;9591;52.742;13.650;2023-01-30T14:57:28;99937.81;;;4.39;100.00
18918;BME280;9591;52.742;13.650;2023-01-30T15:00:23;99918.06;;;4.23;100.00
18918;BME280;9591;52.742;13.650;2023-01-30T15:03:17;99873.97;;;3.99;100.00
18918;BME280;9591;52.742;13.650;2023-01-30T15:06:05;99937.00;;;4.36;100.00